sensor_id;sensor_type;location;lat;lon;timestamp;P1;durP1;ratioP1;P2;durP2;ratioP2
10529;SDS011;5313;48.834;9.228;2023-02-25T00:01:47;7.47;;;4.20;;
10529;SDS011;5313;48.834;9.228;2023-02-25T00:04:13;8.03;;;4.47;;
10529;SDS011;5313;48.834;9.228;2023-02-25T00:06:38;8.47;;;4.20;;
10529;SDS011;5313;48.834;9.228;2023-02-25T00:09:04;8.00;;;4.63;;
10529;SDS011;5313;48.834;9.228;2023-02-25T00:11:30;10.20;;;4.93;;
10529;SDS011;5313;48.834;9.228;2023-02-25T00:13:56;7.37;;;4.43;;
10529;SDS011;5313;48.834;9.228;2023-02-25T00:16:22;7.33;;;4.33;;
10529;SDS011;5313;48.834;9.228;2023-02-25T00:18:55;8.50;;;4.67;;
10529;SDS011;5313;48.834;9.228;2023-02-25T00:21:21;7.87;;;4.90;;
10529;SDS011;5313;48.834;9.228;2023-02-25T00:23:47;7.40;;;4.87;;
10529;SDS011;5313;48.834;9.228;2023-02-25T00:26:14;6.83;;;4.43;;
10529;SDS011;5313;48.834;9.228;2023-02-25T00:28:41;8.77;;;5.67;;
10529;SDS011;5313;48.834;9.228;2023-02-25T00:31:08;7.90;;;4.80;;
10529;SDS011;5313;48.834;9.228;2023-02-25T00:33:35;7.27;;;4.50;;
10529;SDS011;5313;48.834;9.228;2023-02-25T00:36:06;7.97;;;4.77;;
10529;SDS011;5313;48.834;9.228;2023-02-25T00:38:43;6.90;;;4.50;;
10529;SDS011;5313;48.834;9.228;2023-02-25T00:41:12;7.50;;;5.07;;
10529;SDS011;5313;48.834;9.228;2023-02-25T00:43:40;7.93;;;5.03;;
10529;SDS011;5313;48.834;9.228;2023-02-25T00:46:07;10.17;;;4.20;;
10529;SDS011;5313;48.834;9.228;2023-02-25T00:48:33;6.30;;;4.07;;
10529;SDS011;5313;48.834;9.228;2023-02-25T00:51:09;5.67;;;3.50;;
10529;SDS011;5313;48.834;9.228;2023-02-25T00:53:37;6.30;;;3.50;;
10529;SDS011;5313;48.834;9.228;2023-02-25T00:56:04;5.07;;;3.40;;
10529;SDS011;5313;48.834;9.228;2023-02-25T00:58:35;7.43;;;3.63;;
10529;SDS011;5313;48.834;9.228;2023-02-25T01:01:04;6.77;;;3.97;;
10529;SDS011;5313;48.834;9.228;2023-02-25T01:03:40;5.87;;;3.60;;
10529;SDS011;5313;48.834;9.228;2023-02-25T01:06:08;8.77;;;3.43;;
10529;SDS011;5313;48.834;9.228;2023-02-25T01:08:34;5.20;;;3.30;;
10529;SDS011;5313;48.834;9.228;2023-02-25T01:11:00;7.17;;;3.63;;
10529;SDS011;5313;48.834;9.228;2023-02-25T01:13:37;6.87;;;3.97;;
10529;SDS011;5313;48.834;9.228;2023-02-25T01:16:08;6.33;;;3.70;;
10529;SDS011;5313;48.834;9.228;2023-02-25T01:18:35;8.90;;;4.53;;
10529;SDS011;5313;48.834;9.228;2023-02-25T01:21:01;6.77;;;4.00;;
10529;SDS011;5313;48.834;9.228;2023-02-25T01:23:26;5.83;;;3.33;;
10529;SDS011;5313;48.834;9.228;2023-02-25T01:25:52;6.67;;;3.80;;
10529;SDS011;5313;48.834;9.228;2023-02-25T01:28:17;6.07;;;3.53;;
10529;SDS011;5313;48.834;9.228;2023-02-25T01:30:43;5.93;;;2.83;;
10529;SDS011;5313;48.834;9.228;2023-02-25T01:33:09;2.97;;;2.40;;
10529;SDS011;5313;48.834;9.228;2023-02-25T01:35:35;3.90;;;2.80;;
10529;SDS011;5313;48.834;9.228;2023-02-25T01:38:00;5.10;;;2.90;;
10529;SDS011;5313;48.834;9.228;2023-02-25T01:40:26;4.70;;;2.60;;
10529;SDS011;5313;48.834;9.228;2023-02-25T01:42:51;5.07;;;3.20;;
10529;SDS011;5313;48.834;9.228;2023-02-25T01:48:03;5.27;;;3.33;;
10529;SDS011;5313;48.834;9.228;2023-02-25T01:50:38;6.73;;;3.27;;
10529;SDS011;5313;48.834;9.228;2023-02-25T01:53:07;7.73;;;3.10;;
10529;SDS011;5313;48.834;9.228;2023-02-25T01:55:33;4.80;;;3.00;;
10529;SDS011;5313;48.834;9.228;2023-02-25T01:57:59;5.80;;;3.23;;
10529;SDS011;5313;48.834;9.228;2023-02-25T02:00:26;5.70;;;3.30;;
10529;SDS011;5313;48.834;9.228;2023-02-25T02:02:54;4.77;;;2.60;;
10529;SDS011;5313;48.834;9.228;2023-02-25T02:05:22;4.73;;;3.13;;
10529;SDS011;5313;48.834;9.228;2023-02-25T02:07:55;6.50;;;3.30;;
10529;SDS011;5313;48.834;9.228;2023-02-25T02:10:21;3.10;;;2.40;;
10529;SDS011;5313;48.834;9.228;2023-02-25T02:12:46;3.63;;;2.43;;
10529;SDS011;5313;48.834;9.228;2023-02-25T02:15:13;4.00;;;2.50;;
10529;SDS011;5313;48.834;9.228;2023-02-25T02:17:55;4.20;;;2.40;;
10529;SDS011;5313;48.834;9.228;2023-02-25T02:20:25;7.83;;;2.90;;
10529;SDS011;5313;48.834;9.228;2023-02-25T02:31:24;4.47;;;2.37;;
10529;SDS011;5313;48.834;9.228;2023-02-25T02:34:24;4.70;;;2.30;;
10529;SDS011;5313;48.834;9.228;2023-02-25T02:37:05;4.10;;;2.40;;
10529;SDS011;5313;48.834;9.228;2023-02-25T02:45:28;6.20;;;2.60;;
10529;SDS011;5313;48.834;9.228;2023-02-25T02:48:20;7.23;;;2.50;;
10529;SDS011;5313;48.834;9.228;2023-02-25T02:51:11;4.87;;;2.83;;
10529;SDS011;5313;48.834;9.228;2023-02-25T02:53:52;4.07;;;2.40;;
10529;SDS011;5313;48.834;9.228;2023-02-25T02:56:20;8.40;;;2.87;;
10529;SDS011;5313;48.834;9.228;2023-02-25T02:58:51;2.73;;;2.40;;
10529;SDS011;5313;48.834;9.228;2023-02-25T03:01:26;5.07;;;2.50;;
10529;SDS011;5313;48.834;9.228;2023-02-25T03:03:57;6.40;;;3.07;;
10529;SDS011;5313;48.834;9.228;2023-02-25T03:06:50;4.83;;;2.63;;
10529;SDS011;5313;48.834;9.228;2023-02-25T03:09:27;4.90;;;3.00;;
10529;SDS011;5313;48.834;9.228;2023-02-25T03:12:02;6.43;;;2.40;;
10529;SDS011;5313;48.834;9.228;2023-02-25T03:14:27;3.57;;;2.50;;
10529;SDS011;5313;48.834;9.228;2023-02-25T03:16:55;7.17;;;3.07;;
10529;SDS011;5313;48.834;9.228;2023-02-25T03:22:18;3.67;;;2.47;;
10529;SDS011;5313;48.834;9.228;2023-02-25T03:27:51;5.50;;;2.47;;
10529;SDS011;5313;48.834;9.228;2023-02-25T03:35:54;3.50;;;2.60;;
10529;SDS011;5313;48.834;9.228;2023-02-25T03:38:21;3.80;;;2.40;;
10529;SDS011;5313;48.834;9.228;2023-02-25T03:40:50;4.73;;;2.60;;
10529;SDS011;5313;48.834;9.228;2023-02-25T03:43:21;5.20;;;2.60;;
10529;SDS011;5313;48.834;9.228;2023-02-25T03:45:50;7.93;;;2.53;;
10529;SDS011;5313;48.834;9.228;2023-02-25T03:48:16;6.77;;;2.60;;
10529;SDS011;5313;48.834;9.228;2023-02-25T03:50:47;4.40;;;2.30;;
10529;SDS011;5313;48.834;9.228;2023-02-25T03:53:17;5.43;;;2.07;;
10529;SDS011;5313;48.834;9.228;2023-02-25T03:55:43;5.60;;;2.23;;
10529;SDS011;5313;48.834;9.228;2023-02-25T03:58:09;4.23;;;2.43;;
10529;SDS011;5313;48.834;9.228;2023-02-25T04:00:35;4.87;;;2.40;;
10529;SDS011;5313;48.834;9.228;2023-02-25T04:03:02;2.87;;;1.83;;
10529;SDS011;5313;48.834;9.228;2023-02-25T04:05:28;4.13;;;2.00;;
10529;SDS011;5313;48.834;9.228;2023-02-25T04:07:54;3.37;;;1.90;;
10529;SDS011;5313;48.834;9.228;2023-02-25T04:10:21;6.47;;;2.10;;
10529;SDS011;5313;48.834;9.228;2023-02-25T04:12:47;3.57;;;2.13;;
10529;SDS011;5313;48.834;9.228;2023-02-25T04:15:15;3.23;;;1.80;;
10529;SDS011;5313;48.834;9.228;2023-02-25T04:17:41;4.10;;;1.70;;
10529;SDS011;5313;48.834;9.228;2023-02-25T04:20:09;3.80;;;2.20;;
10529;SDS011;5313;48.834;9.228;2023-02-25T04:22:36;5.40;;;1.70;;
10529;SDS011;5313;48.834;9.228;2023-02-25T04:25:02;3.37;;;1.50;;
10529;SDS011;5313;48.834;9.228;2023-02-25T04:27:28;5.20;;;1.67;;
10529;SDS011;5313;48.834;9.228;2023-02-25T04:29:53;3.33;;;1.33;;
10529;SDS011;5313;48.834;9.228;2023-02-25T04:32:19;2.23;;;1.10;;
10529;SDS011;5313;48.834;9.228;2023-02-25T04:34:44;3.23;;;1.30;;
10529;SDS011;5313;48.834;9.228;2023-02-25T04:37:10;3.63;;;1.50;;
10529;SDS011;5313;48.834;9.228;2023-02-25T04:39:35;4.40;;;1.53;;
10529;SDS011;5313;48.834;9.228;2023-02-25T04:42:01;5.03;;;1.33;;
10529;SDS011;5313;48.834;9.228;2023-02-25T04:44:26;5.77;;;1.30;;
10529;SDS011;5313;48.834;9.228;2023-02-25T04:46:52;3.97;;;1.47;;
10529;SDS011;5313;48.834;9.228;2023-02-25T04:49:18;4.90;;;1.67;;
10529;SDS011;5313;48.834;9.228;2023-02-25T04:51:45;3.83;;;1.30;;
10529;SDS011;5313;48.834;9.228;2023-02-25T04:54:13;5.13;;;1.50;;
10529;SDS011;5313;48.834;9.228;2023-02-25T04:56:39;3.30;;;1.30;;
10529;SDS011;5313;48.834;9.228;2023-02-25T04:59:04;5.03;;;1.60;;
10529;SDS011;5313;48.834;9.228;2023-02-25T05:01:30;2.67;;;1.60;;
10529;SDS011;5313;48.834;9.228;2023-02-25T05:03:56;2.90;;;1.43;;
10529;SDS011;5313;48.834;9.228;2023-02-25T05:06:24;4.20;;;1.10;;
10529;SDS011;5313;48.834;9.228;2023-02-25T05:08:51;4.10;;;1.30;;
10529;SDS011;5313;48.834;9.228;2023-02-25T05:11:17;3.77;;;1.63;;
10529;SDS011;5313;48.834;9.228;2023-02-25T05:13:44;4.60;;;1.63;;
10529;SDS011;5313;48.834;9.228;2023-02-25T05:16:11;2.67;;;1.07;;
10529;SDS011;5313;48.834;9.228;2023-02-25T05:18:40;3.77;;;1.47;;
10529;SDS011;5313;48.834;9.228;2023-02-25T05:21:07;3.93;;;1.40;;
10529;SDS011;5313;48.834;9.228;2023-02-25T05:23:36;6.03;;;1.40;;
10529;SDS011;5313;48.834;9.228;2023-02-25T05:26:02;3.60;;;1.20;;
10529;SDS011;5313;48.834;9.228;2023-02-25T05:28:28;2.40;;;1.10;;
10529;SDS011;5313;48.834;9.228;2023-02-25T05:30:53;4.53;;;1.23;;
10529;SDS011;5313;48.834;9.228;2023-02-25T05:33:19;6.23;;;1.63;;
10529;SDS011;5313;48.834;9.228;2023-02-25T05:35:45;4.53;;;1.20;;
10529;SDS011;5313;48.834;9.228;2023-02-25T05:38:10;3.20;;;1.20;;
10529;SDS011;5313;48.834;9.228;2023-02-25T05:40:37;2.67;;;1.07;;
10529;SDS011;5313;48.834;9.228;2023-02-25T05:43:03;5.00;;;1.10;;
10529;SDS011;5313;48.834;9.228;2023-02-25T05:45:29;3.57;;;0.90;;
10529;SDS011;5313;48.834;9.228;2023-02-25T05:47:54;2.67;;;1.00;;
10529;SDS011;5313;48.834;9.228;2023-02-25T05:50:20;2.47;;;0.93;;
10529;SDS011;5313;48.834;9.228;2023-02-25T05:52:45;4.63;;;0.90;;
10529;SDS011;5313;48.834;9.228;2023-02-25T05:55:11;3.33;;;1.27;;
10529;SDS011;5313;48.834;9.228;2023-02-25T05:57:37;7.37;;;1.43;;
10529;SDS011;5313;48.834;9.228;2023-02-25T06:00:05;2.60;;;1.30;;
10529;SDS011;5313;48.834;9.228;2023-02-25T06:02:38;4.43;;;1.20;;
10529;SDS011;5313;48.834;9.228;2023-02-25T06:05:04;5.97;;;1.20;;
10529;SDS011;5313;48.834;9.228;2023-02-25T06:07:31;2.70;;;0.97;;
10529;SDS011;5313;48.834;9.228;2023-02-25T06:09:57;3.13;;;0.93;;
10529;SDS011;5313;48.834;9.228;2023-02-25T06:12:25;4.07;;;1.23;;
10529;SDS011;5313;48.834;9.228;2023-02-25T06:14:52;4.30;;;1.20;;
10529;SDS011;5313;48.834;9.228;2023-02-25T06:17:17;3.40;;;1.03;;
10529;SDS011;5313;48.834;9.228;2023-02-25T06:19:43;2.63;;;1.00;;
10529;SDS011;5313;48.834;9.228;2023-02-25T06:22:09;3.33;;;1.17;;
10529;SDS011;5313;48.834;9.228;2023-02-25T06:24:35;3.70;;;0.97;;
10529;SDS011;5313;48.834;9.228;2023-02-25T06:27:00;4.20;;;0.80;;
10529;SDS011;5313;48.834;9.228;2023-02-25T06:29:26;4.17;;;1.23;;
10529;SDS011;5313;48.834;9.228;2023-02-25T06:31:52;4.30;;;1.20;;
10529;SDS011;5313;48.834;9.228;2023-02-25T06:34:18;4.23;;;1.10;;
10529;SDS011;5313;48.834;9.228;2023-02-25T06:36:44;3.27;;;1.30;;
10529;SDS011;5313;48.834;9.228;2023-02-25T06:39:10;2.83;;;1.00;;
10529;SDS011;5313;48.834;9.228;2023-02-25T06:41:36;4.53;;;1.17;;
10529;SDS011;5313;48.834;9.228;2023-02-25T06:44:01;2.83;;;1.30;;
10529;SDS011;5313;48.834;9.228;2023-02-25T06:46:28;3.73;;;1.13;;
10529;SDS011;5313;48.834;9.228;2023-02-25T06:48:53;4.50;;;1.13;;
10529;SDS011;5313;48.834;9.228;2023-02-25T06:51:19;5.97;;;1.27;;
10529;SDS011;5313;48.834;9.228;2023-02-25T06:53:45;4.87;;;1.30;;
10529;SDS011;5313;48.834;9.228;2023-02-25T06:56:12;3.50;;;1.37;;
10529;SDS011;5313;48.834;9.228;2023-02-25T06:58:38;2.73;;;1.10;;
10529;SDS011;5313;48.834;9.228;2023-02-25T07:01:05;2.80;;;1.20;;
10529;SDS011;5313;48.834;9.228;2023-02-25T07:03:35;4.37;;;1.10;;
10529;SDS011;5313;48.834;9.228;2023-02-25T07:06:01;3.63;;;1.03;;
10529;SDS011;5313;48.834;9.228;2023-02-25T07:08:26;2.67;;;0.80;;
10529;SDS011;5313;48.834;9.228;2023-02-25T07:10:52;2.30;;;1.00;;
10529;SDS011;5313;48.834;9.228;2023-02-25T07:13:17;3.50;;;0.97;;
10529;SDS011;5313;48.834;9.228;2023-02-25T07:15:43;3.27;;;0.90;;
10529;SDS011;5313;48.834;9.228;2023-02-25T07:18:08;2.73;;;0.80;;
10529;SDS011;5313;48.834;9.228;2023-02-25T07:20:34;2.60;;;1.00;;
10529;SDS011;5313;48.834;9.228;2023-02-25T07:23:02;1.80;;;1.10;;
10529;SDS011;5313;48.834;9.228;2023-02-25T07:25:28;2.97;;;1.20;;
10529;SDS011;5313;48.834;9.228;2023-02-25T07:27:53;5.50;;;1.77;;
10529;SDS011;5313;48.834;9.228;2023-02-25T07:30:19;2.90;;;0.93;;
10529;SDS011;5313;48.834;9.228;2023-02-25T07:32:44;1.70;;;1.00;;
10529;SDS011;5313;48.834;9.228;2023-02-25T07:35:10;3.73;;;1.00;;
10529;SDS011;5313;48.834;9.228;2023-02-25T07:37:36;2.23;;;1.00;;
10529;SDS011;5313;48.834;9.228;2023-02-25T07:40:02;3.53;;;0.90;;
10529;SDS011;5313;48.834;9.228;2023-02-25T07:42:29;4.20;;;1.00;;
10529;SDS011;5313;48.834;9.228;2023-02-25T07:44:54;4.47;;;1.07;;
10529;SDS011;5313;48.834;9.228;2023-02-25T07:47:20;2.77;;;0.90;;
10529;SDS011;5313;48.834;9.228;2023-02-25T07:49:46;5.00;;;1.20;;
10529;SDS011;5313;48.834;9.228;2023-02-25T07:52:11;7.30;;;1.30;;
10529;SDS011;5313;48.834;9.228;2023-02-25T07:54:37;2.40;;;1.10;;
10529;SDS011;5313;48.834;9.228;2023-02-25T07:57:03;3.37;;;1.17;;
10529;SDS011;5313;48.834;9.228;2023-02-25T07:59:29;2.93;;;1.27;;
10529;SDS011;5313;48.834;9.228;2023-02-25T08:01:55;3.80;;;1.03;;
10529;SDS011;5313;48.834;9.228;2023-02-25T08:04:21;5.73;;;1.37;;
10529;SDS011;5313;48.834;9.228;2023-02-25T08:06:47;3.80;;;1.40;;
10529;SDS011;5313;48.834;9.228;2023-02-25T08:09:12;5.13;;;1.40;;
10529;SDS011;5313;48.834;9.228;2023-02-25T08:11:38;3.63;;;1.00;;
10529;SDS011;5313;48.834;9.228;2023-02-25T08:14:04;2.83;;;1.20;;
10529;SDS011;5313;48.834;9.228;2023-02-25T08:16:30;1.70;;;1.00;;
10529;SDS011;5313;48.834;9.228;2023-02-25T08:18:57;8.93;;;1.60;;
10529;SDS011;5313;48.834;9.228;2023-02-25T08:21:23;8.67;;;2.13;;
10529;SDS011;5313;48.834;9.228;2023-02-25T08:23:50;2.80;;;1.30;;
10529;SDS011;5313;48.834;9.228;2023-02-25T08:26:16;4.07;;;1.00;;
10529;SDS011;5313;48.834;9.228;2023-02-25T08:28:43;6.83;;;1.37;;
10529;SDS011;5313;48.834;9.228;2023-02-25T08:31:09;7.17;;;1.93;;
10529;SDS011;5313;48.834;9.228;2023-02-25T08:33:36;3.40;;;1.43;;
10529;SDS011;5313;48.834;9.228;2023-02-25T08:36:11;2.40;;;1.17;;
10529;SDS011;5313;48.834;9.228;2023-02-25T08:38:39;2.87;;;1.27;;
10529;SDS011;5313;48.834;9.228;2023-02-25T08:41:06;5.30;;;1.20;;
10529;SDS011;5313;48.834;9.228;2023-02-25T08:43:32;2.40;;;1.10;;
10529;SDS011;5313;48.834;9.228;2023-02-25T08:45:57;3.93;;;1.20;;
10529;SDS011;5313;48.834;9.228;2023-02-25T08:48:23;2.67;;;1.20;;
10529;SDS011;5313;48.834;9.228;2023-02-25T08:50:49;3.53;;;1.40;;
10529;SDS011;5313;48.834;9.228;2023-02-25T08:53:14;5.53;;;1.50;;
10529;SDS011;5313;48.834;9.228;2023-02-25T08:55:40;3.10;;;1.20;;
10529;SDS011;5313;48.834;9.228;2023-02-25T08:58:05;3.07;;;0.80;;
10529;SDS011;5313;48.834;9.228;2023-02-25T09:00:31;4.03;;;0.87;;
10529;SDS011;5313;48.834;9.228;2023-02-25T09:02:57;2.50;;;0.83;;
10529;SDS011;5313;48.834;9.228;2023-02-25T09:05:23;2.77;;;0.87;;
10529;SDS011;5313;48.834;9.228;2023-02-25T09:07:49;4.53;;;1.30;;
10529;SDS011;5313;48.834;9.228;2023-02-25T09:10:15;2.07;;;0.73;;
10529;SDS011;5313;48.834;9.228;2023-02-25T09:12:41;4.20;;;1.00;;
10529;SDS011;5313;48.834;9.228;2023-02-25T09:15:08;5.97;;;1.73;;
10529;SDS011;5313;48.834;9.228;2023-02-25T09:17:35;2.80;;;1.10;;
10529;SDS011;5313;48.834;9.228;2023-02-25T09:20:01;2.80;;;1.00;;
10529;SDS011;5313;48.834;9.228;2023-02-25T09:22:31;6.70;;;1.30;;
10529;SDS011;5313;48.834;9.228;2023-02-25T09:24:57;2.97;;;1.07;;
10529;SDS011;5313;48.834;9.228;2023-02-25T09:27:23;3.23;;;0.90;;
10529;SDS011;5313;48.834;9.228;2023-02-25T09:29:48;2.10;;;0.90;;
10529;SDS011;5313;48.834;9.228;2023-02-25T09:32:18;2.17;;;0.80;;
10529;SDS011;5313;48.834;9.228;2023-02-25T09:34:45;1.63;;;0.90;;
10529;SDS011;5313;48.834;9.228;2023-02-25T09:37:13;4.03;;;1.20;;
10529;SDS011;5313;48.834;9.228;2023-02-25T09:39:39;3.07;;;0.80;;
10529;SDS011;5313;48.834;9.228;2023-02-25T09:42:07;3.53;;;0.90;;
10529;SDS011;5313;48.834;9.228;2023-02-25T09:44:36;2.70;;;0.87;;
10529;SDS011;5313;48.834;9.228;2023-02-25T09:50:12;1.97;;;0.90;;
10529;SDS011;5313;48.834;9.228;2023-02-25T09:55:30;2.00;;;1.00;;
10529;SDS011;5313;48.834;9.228;2023-02-25T09:58:06;1.50;;;0.67;;
10529;SDS011;5313;48.834;9.228;2023-02-25T10:00:47;1.77;;;0.70;;
10529;SDS011;5313;48.834;9.228;2023-02-25T10:03:21;3.33;;;1.07;;
10529;SDS011;5313;48.834;9.228;2023-02-25T10:05:58;3.63;;;0.70;;
10529;SDS011;5313;48.834;9.228;2023-02-25T10:08:37;3.33;;;0.60;;
10529;SDS011;5313;48.834;9.228;2023-02-25T10:11:56;1.77;;;0.70;;
10529;SDS011;5313;48.834;9.228;2023-02-25T10:17:15;1.40;;;0.60;;
10529;SDS011;5313;48.834;9.228;2023-02-25T10:19:55;2.10;;;0.57;;
10529;SDS011;5313;48.834;9.228;2023-02-25T10:25:55;2.57;;;0.73;;
10529;SDS011;5313;48.834;9.228;2023-02-25T10:28:43;2.67;;;0.60;;
10529;SDS011;5313;48.834;9.228;2023-02-25T10:31:14;1.80;;;0.57;;
10529;SDS011;5313;48.834;9.228;2023-02-25T10:33:42;1.47;;;0.67;;
10529;SDS011;5313;48.834;9.228;2023-02-25T10:36:16;1.70;;;0.60;;
10529;SDS011;5313;48.834;9.228;2023-02-25T10:38:47;1.13;;;0.57;;
10529;SDS011;5313;48.834;9.228;2023-02-25T10:41:17;2.00;;;0.50;;
10529;SDS011;5313;48.834;9.228;2023-02-25T10:43:46;2.50;;;0.93;;
10529;SDS011;5313;48.834;9.228;2023-02-25T10:46:22;0.70;;;0.67;;
10529;SDS011;5313;48.834;9.228;2023-02-25T10:49:17;1.13;;;0.60;;
10529;SDS011;5313;48.834;9.228;2023-02-25T10:51:57;1.80;;;0.80;;
10529;SDS011;5313;48.834;9.228;2023-02-25T10:54:26;2.20;;;0.70;;
10529;SDS011;5313;48.834;9.228;2023-02-25T10:56:57;3.23;;;1.00;;
10529;SDS011;5313;48.834;9.228;2023-02-25T11:02:04;2.80;;;0.93;;
10529;SDS011;5313;48.834;9.228;2023-02-25T11:04:42;4.70;;;0.90;;
10529;SDS011;5313;48.834;9.228;2023-02-25T11:12:40;1.90;;;0.80;;
10529;SDS011;5313;48.834;9.228;2023-02-25T11:17:49;4.37;;;1.10;;
10529;SDS011;5313;48.834;9.228;2023-02-25T11:20:23;2.60;;;0.73;;
10529;SDS011;5313;48.834;9.228;2023-02-25T11:22:53;4.00;;;1.17;;
10529;SDS011;5313;48.834;9.228;2023-02-25T11:25:40;1.57;;;0.90;;
10529;SDS011;5313;48.834;9.228;2023-02-25T11:28:22;1.90;;;0.90;;
10529;SDS011;5313;48.834;9.228;2023-02-25T11:30:54;2.77;;;1.00;;
10529;SDS011;5313;48.834;9.228;2023-02-25T11:33:31;1.67;;;1.10;;
10529;SDS011;5313;48.834;9.228;2023-02-25T11:35:58;3.00;;;1.63;;
10529;SDS011;5313;48.834;9.228;2023-02-25T11:38:27;1.77;;;1.00;;
10529;SDS011;5313;48.834;9.228;2023-02-25T11:41:00;3.93;;;1.30;;
10529;SDS011;5313;48.834;9.228;2023-02-25T11:43:33;2.20;;;1.03;;
10529;SDS011;5313;48.834;9.228;2023-02-25T11:46:42;3.67;;;1.10;;
10529;SDS011;5313;48.834;9.228;2023-02-25T11:48:52;3.87;;;1.37;;
10529;SDS011;5313;48.834;9.228;2023-02-25T11:51:30;4.30;;;1.03;;
10529;SDS011;5313;48.834;9.228;2023-02-25T11:56:53;3.10;;;1.20;;
10529;SDS011;5313;48.834;9.228;2023-02-25T11:59:38;3.47;;;1.10;;
10529;SDS011;5313;48.834;9.228;2023-02-25T12:02:18;3.73;;;1.10;;
10529;SDS011;5313;48.834;9.228;2023-02-25T12:07:37;2.73;;;1.20;;
10529;SDS011;5313;48.834;9.228;2023-02-25T12:24:02;3.27;;;1.23;;
10529;SDS011;5313;48.834;9.228;2023-02-25T12:26:54;3.13;;;1.10;;
10529;SDS011;5313;48.834;9.228;2023-02-25T12:40:40;2.77;;;1.43;;
10529;SDS011;5313;48.834;9.228;2023-02-25T12:43:46;4.30;;;1.80;;
10529;SDS011;5313;48.834;9.228;2023-02-25T12:54:53;2.53;;;1.20;;
10529;SDS011;5313;48.834;9.228;2023-02-25T12:57:35;3.10;;;1.40;;
10529;SDS011;5313;48.834;9.228;2023-02-25T13:03:22;3.30;;;1.30;;
10529;SDS011;5313;48.834;9.228;2023-02-25T13:06:15;2.47;;;1.40;;
10529;SDS011;5313;48.834;9.228;2023-02-25T13:17:55;5.80;;;1.03;;
10529;SDS011;5313;48.834;9.228;2023-02-25T13:23:24;5.23;;;1.50;;
10529;SDS011;5313;48.834;9.228;2023-02-25T13:29:05;2.07;;;1.20;;
10529;SDS011;5313;48.834;9.228;2023-02-25T13:34:18;4.77;;;1.43;;
10529;SDS011;5313;48.834;9.228;2023-02-25T13:43:05;2.93;;;1.17;;
10529;SDS011;5313;48.834;9.228;2023-02-25T13:45:48;4.43;;;1.20;;
10529;SDS011;5313;48.834;9.228;2023-02-25T13:54:01;2.53;;;1.03;;
10529;SDS011;5313;48.834;9.228;2023-02-25T13:56:54;4.20;;;1.03;;
10529;SDS011;5313;48.834;9.228;2023-02-25T14:07:48;2.60;;;1.00;;
10529;SDS011;5313;48.834;9.228;2023-02-25T14:21:08;3.20;;;1.37;;
10529;SDS011;5313;48.834;9.228;2023-02-25T14:23:53;5.97;;;1.40;;
10529;SDS011;5313;48.834;9.228;2023-02-25T14:26:33;7.07;;;1.63;;
10529;SDS011;5313;48.834;9.228;2023-02-25T14:34:58;6.13;;;1.30;;
10529;SDS011;5313;48.834;9.228;2023-02-25T14:48:42;4.57;;;1.30;;
10529;SDS011;5313;48.834;9.228;2023-02-25T14:57:33;3.60;;;1.73;;
10529;SDS011;5313;48.834;9.228;2023-02-25T15:03:07;4.63;;;1.50;;
10529;SDS011;5313;48.834;9.228;2023-02-25T15:05:48;5.73;;;1.50;;
10529;SDS011;5313;48.834;9.228;2023-02-25T15:11:41;2.60;;;1.10;;
10529;SDS011;5313;48.834;9.228;2023-02-25T15:20:10;3.50;;;1.30;;
10529;SDS011;5313;48.834;9.228;2023-02-25T15:23:39;5.10;;;1.53;;
10529;SDS011;5313;48.834;9.228;2023-02-25T15:31:03;4.47;;;1.20;;
10529;SDS011;5313;48.834;9.228;2023-02-25T15:36:26;4.43;;;1.20;;
10529;SDS011;5313;48.834;9.228;2023-02-25T15:39:02;3.83;;;1.33;;
10529;SDS011;5313;48.834;9.228;2023-02-25T15:41:35;3.17;;;1.30;;
10529;SDS011;5313;48.834;9.228;2023-02-25T15:49:08;6.13;;;1.70;;
10529;SDS011;5313;48.834;9.228;2023-02-25T15:51:44;2.93;;;2.03;;
10529;SDS011;5313;48.834;9.228;2023-02-25T15:57:40;3.57;;;1.43;;
10529;SDS011;5313;48.834;9.228;2023-02-25T15:59:58;6.80;;;2.10;;
10529;SDS011;5313;48.834;9.228;2023-02-25T16:07:43;5.83;;;2.23;;
10529;SDS011;5313;48.834;9.228;2023-02-25T16:12:42;5.20;;;2.37;;
10529;SDS011;5313;48.834;9.228;2023-02-25T16:15:31;5.17;;;2.27;;
10529;SDS011;5313;48.834;9.228;2023-02-25T16:18:15;7.70;;;2.73;;
10529;SDS011;5313;48.834;9.228;2023-02-25T16:21:14;9.17;;;2.07;;
10529;SDS011;5313;48.834;9.228;2023-02-25T16:23:50;8.80;;;2.23;;
10529;SDS011;5313;48.834;9.228;2023-02-25T16:29:43;4.87;;;2.33;;
10529;SDS011;5313;48.834;9.228;2023-02-25T16:32:18;5.03;;;2.17;;
10529;SDS011;5313;48.834;9.228;2023-02-25T16:35:26;5.63;;;2.07;;
10529;SDS011;5313;48.834;9.228;2023-02-25T16:38:01;6.37;;;1.90;;
10529;SDS011;5313;48.834;9.228;2023-02-25T16:40:38;6.87;;;1.87;;
10529;SDS011;5313;48.834;9.228;2023-02-25T16:43:08;6.77;;;1.50;;
10529;SDS011;5313;48.834;9.228;2023-02-25T16:45:40;6.87;;;2.20;;
10529;SDS011;5313;48.834;9.228;2023-02-25T16:48:13;5.43;;;2.33;;
10529;SDS011;5313;48.834;9.228;2023-02-25T16:50:43;5.07;;;2.30;;
10529;SDS011;5313;48.834;9.228;2023-02-25T16:53:14;3.97;;;1.83;;
10529;SDS011;5313;48.834;9.228;2023-02-25T16:55:46;6.17;;;2.40;;
10529;SDS011;5313;48.834;9.228;2023-02-25T17:00:59;4.17;;;1.90;;
10529;SDS011;5313;48.834;9.228;2023-02-25T17:03:29;2.67;;;1.50;;
10529;SDS011;5313;48.834;9.228;2023-02-25T17:06:07;4.60;;;1.60;;
10529;SDS011;5313;48.834;9.228;2023-02-25T17:08:43;5.83;;;2.20;;
10529;SDS011;5313;48.834;9.228;2023-02-25T17:11:11;5.57;;;2.43;;
10529;SDS011;5313;48.834;9.228;2023-02-25T17:13:41;10.30;;;2.93;;
10529;SDS011;5313;48.834;9.228;2023-02-25T17:19:07;4.93;;;1.77;;
10529;SDS011;5313;48.834;9.228;2023-02-25T17:21:35;8.93;;;2.27;;
10529;SDS011;5313;48.834;9.228;2023-02-25T17:24:04;4.13;;;1.80;;
10529;SDS011;5313;48.834;9.228;2023-02-25T17:26:35;5.60;;;2.13;;
10529;SDS011;5313;48.834;9.228;2023-02-25T17:29:08;5.53;;;1.30;;
10529;SDS011;5313;48.834;9.228;2023-02-25T17:31:40;1.30;;;1.00;;
10529;SDS011;5313;48.834;9.228;2023-02-25T17:34:15;3.30;;;1.10;;
10529;SDS011;5313;48.834;9.228;2023-02-25T17:37:03;3.67;;;1.30;;
10529;SDS011;5313;48.834;9.228;2023-02-25T17:39:30;3.90;;;1.40;;
10529;SDS011;5313;48.834;9.228;2023-02-25T17:41:57;2.03;;;1.50;;
10529;SDS011;5313;48.834;9.228;2023-02-25T17:47:01;6.93;;;1.90;;
10529;SDS011;5313;48.834;9.228;2023-02-25T17:49:30;4.70;;;2.10;;
10529;SDS011;5313;48.834;9.228;2023-02-25T17:51:59;4.03;;;1.73;;
10529;SDS011;5313;48.834;9.228;2023-02-25T17:54:46;2.13;;;1.70;;
10529;SDS011;5313;48.834;9.228;2023-02-25T17:57:16;6.60;;;2.20;;
10529;SDS011;5313;48.834;9.228;2023-02-25T18:00:28;4.40;;;2.10;;
10529;SDS011;5313;48.834;9.228;2023-02-25T18:02:38;3.53;;;2.30;;
10529;SDS011;5313;48.834;9.228;2023-02-25T18:05:13;4.77;;;2.30;;
10529;SDS011;5313;48.834;9.228;2023-02-25T18:08:06;2.53;;;1.80;;
10529;SDS011;5313;48.834;9.228;2023-02-25T18:10:46;8.27;;;3.10;;
10529;SDS011;5313;48.834;9.228;2023-02-25T18:13:30;2.90;;;2.50;;
10529;SDS011;5313;48.834;9.228;2023-02-25T18:18:50;4.23;;;2.57;;
10529;SDS011;5313;48.834;9.228;2023-02-25T18:21:17;4.40;;;3.07;;
10529;SDS011;5313;48.834;9.228;2023-02-25T18:23:43;8.00;;;2.90;;
10529;SDS011;5313;48.834;9.228;2023-02-25T18:26:14;3.67;;;2.53;;
10529;SDS011;5313;48.834;9.228;2023-02-25T18:28:53;6.47;;;2.63;;
10529;SDS011;5313;48.834;9.228;2023-02-25T18:31:21;5.13;;;2.80;;
10529;SDS011;5313;48.834;9.228;2023-02-25T18:33:47;5.87;;;3.40;;
10529;SDS011;5313;48.834;9.228;2023-02-25T18:36:20;4.90;;;3.37;;
10529;SDS011;5313;48.834;9.228;2023-02-25T18:38:49;7.27;;;3.13;;
10529;SDS011;5313;48.834;9.228;2023-02-25T18:41:17;10.47;;;4.07;;
10529;SDS011;5313;48.834;9.228;2023-02-25T18:43:42;6.23;;;3.53;;
10529;SDS011;5313;48.834;9.228;2023-02-25T18:46:08;6.00;;;3.63;;
10529;SDS011;5313;48.834;9.228;2023-02-25T18:48:35;7.47;;;3.20;;
10529;SDS011;5313;48.834;9.228;2023-02-25T18:51:01;8.80;;;3.77;;
10529;SDS011;5313;48.834;9.228;2023-02-25T18:53:29;6.83;;;3.67;;
10529;SDS011;5313;48.834;9.228;2023-02-25T18:55:56;5.93;;;3.23;;
10529;SDS011;5313;48.834;9.228;2023-02-25T18:58:22;8.77;;;3.70;;